sensor_id;sensor_type;location;lat;lon;timestamp;temperature;humidity
12386;DHT22;6257;57.634;18.310;2023-03-14T00:00:08;6.30;99.90
12386;DHT22;6257;57.634;18.310;2023-03-14T00:02:36;6.20;99.90
12386;DHT22;6257;57.634;18.310;2023-03-14T00:05:04;6.20;99.90
12386;DHT22;6257;57.634;18.310;2023-03-14T00:07:33;6.20;99.90
12386;DHT22;6257;57.634;18.310;2023-03-14T00:10:03;6.20;99.90
12386;DHT22;6257;57.634;18.310;2023-03-14T00:12:31;6.20;99.90
12386;DHT22;6257;57.634;18.310;2023-03-14T00:14:58;6.30;99.90
12386;DHT22;6257;57.634;18.310;2023-03-14T00:17:30;6.30;99.90
12386;DHT22;6257;57.634;18.310;2023-03-14T00:19:58;6.30;99.90
12386;DHT22;6257;57.634;18.310;2023-03-14T00:22:30;6.30;99.90
12386;DHT22;6257;57.634;18.310;2023-03-14T00:24:57;6.30;99.90
12386;DHT22;6257;57.634;18.310;2023-03-14T00:27:24;6.30;99.90
12386;DHT22;6257;57.634;18.310;2023-03-14T00:29:51;6.30;99.90
12386;DHT22;6257;57.634;18.310;2023-03-14T00:32:18;6.30;99.90
12386;DHT22;6257;57.634;18.310;2023-03-14T00:34:47;6.40;99.90
12386;DHT22;6257;57.634;18.310;2023-03-14T00:37:14;6.40;99.90
12386;DHT22;6257;57.634;18.310;2023-03-14T00:39:41;6.40;99.90
12386;DHT22;6257;57.634;18.310;2023-03-14T00:42:08;6.30;99.90
12386;DHT22;6257;57.634;18.310;2023-03-14T00:44:35;6.30;99.90
12386;DHT22;6257;57.634;18.310;2023-03-14T00:47:02;6.30;99.90
12386;DHT22;6257;57.634;18.310;2023-03-14T00:49:29;6.30;99.90
12386;DHT22;6257;57.634;18.310;2023-03-14T00:51:58;6.40;99.90
12386;DHT22;6257;57.634;18.310;2023-03-14T00:54:25;6.50;99.90
12386;DHT22;6257;57.634;18.310;2023-03-14T00:56:52;6.50;99.90
12386;DHT22;6257;57.634;18.310;2023-03-14T00:59:19;6.50;99.90
12386;DHT22;6257;57.634;18.310;2023-03-14T01:01:46;6.50;99.90
12386;DHT22;6257;57.634;18.310;2023-03-14T01:04:13;6.50;99.90
12386;DHT22;6257;57.634;18.310;2023-03-14T01:06:41;6.50;99.90
12386;DHT22;6257;57.634;18.310;2023-03-14T01:09:09;6.50;99.90
12386;DHT22;6257;57.634;18.310;2023-03-14T01:11:36;6.50;99.90
12386;DHT22;6257;57.634;18.310;2023-03-14T01:14:04;6.50;99.90
12386;DHT22;6257;57.634;18.310;2023-03-14T01:16:33;6.60;99.90
12386;DHT22;6257;57.634;18.310;2023-03-14T01:19:01;6.60;99.90
12386;DHT22;6257;57.634;18.310;2023-03-14T01:21:29;6.60;99.90
12386;DHT22;6257;57.634;18.310;2023-03-14T01:23:58;6.60;99.90
12386;DHT22;6257;57.634;18.310;2023-03-14T01:26:30;6.70;99.90
12386;DHT22;6257;57.634;18.310;2023-03-14T01:28:57;6.70;99.90
12386;DHT22;6257;57.634;18.310;2023-03-14T01:31:25;6.70;99.90
12386;DHT22;6257;57.634;18.310;2023-03-14T01:33:52;6.80;99.90
12386;DHT22;6257;57.634;18.310;2023-03-14T01:36:19;6.80;99.90
12386;DHT22;6257;57.634;18.310;2023-03-14T01:38:47;6.80;99.90
12386;DHT22;6257;57.634;18.310;2023-03-14T01:41:16;6.80;99.90
12386;DHT22;6257;57.634;18.310;2023-03-14T01:43:46;6.80;99.90
12386;DHT22;6257;57.634;18.310;2023-03-14T01:46:22;6.80;99.90
12386;DHT22;6257;57.634;18.310;2023-03-14T01:48:55;6.90;99.90
12386;DHT22;6257;57.634;18.310;2023-03-14T01:51:28;6.80;99.90
12386;DHT22;6257;57.634;18.310;2023-03-14T01:54:01;6.80;99.90
12386;DHT22;6257;57.634;18.310;2023-03-14T01:56:30;6.70;99.90
12386;DHT22;6257;57.634;18.310;2023-03-14T01:59:01;6.70;99.90
12386;DHT22;6257;57.634;18.310;2023-03-14T02:01:30;6.50;99.90
12386;DHT22;6257;57.634;18.310;2023-03-14T02:04:01;6.50;99.90
12386;DHT22;6257;57.634;18.310;2023-03-14T02:06:34;6.50;99.90
12386;DHT22;6257;57.634;18.310;2023-03-14T02:09:03;6.50;99.90
12386;DHT22;6257;57.634;18.310;2023-03-14T02:11:30;6.60;99.90
12386;DHT22;6257;57.634;18.310;2023-03-14T02:13:59;6.50;99.90
12386;DHT22;6257;57.634;18.310;2023-03-14T02:16:28;6.60;99.90
12386;DHT22;6257;57.634;18.310;2023-03-14T02:18:55;6.60;99.90
12386;DHT22;6257;57.634;18.310;2023-03-14T02:21:29;6.50;99.90
12386;DHT22;6257;57.634;18.310;2023-03-14T02:24:09;6.50;99.90
12386;DHT22;6257;57.634;18.310;2023-03-14T02:26:40;6.50;99.90
12386;DHT22;6257;57.634;18.310;2023-03-14T02:29:10;6.50;99.90
12386;DHT22;6257;57.634;18.310;2023-03-14T02:31:37;6.40;99.90
12386;DHT22;6257;57.634;18.310;2023-03-14T02:34:05;6.40;99.90
12386;DHT22;6257;57.634;18.310;2023-03-14T02:36:33;6.40;99.90
12386;DHT22;6257;57.634;18.310;2023-03-14T02:39:06;6.30;99.90
12386;DHT22;6257;57.634;18.310;2023-03-14T02:41:34;6.30;99.90
12386;DHT22;6257;57.634;18.310;2023-03-14T02:44:01;6.30;99.90
12386;DHT22;6257;57.634;18.310;2023-03-14T02:46:30;6.30;99.90
12386;DHT22;6257;57.634;18.310;2023-03-14T02:49:02;6.30;99.90
12386;DHT22;6257;57.634;18.310;2023-03-14T02:51:29;6.30;99.90
12386;DHT22;6257;57.634;18.310;2023-03-14T02:53:56;6.30;99.90
12386;DHT22;6257;57.634;18.310;2023-03-14T02:56:24;6.30;99.90
12386;DHT22;6257;57.634;18.310;2023-03-14T02:58:51;6.40;99.90
12386;DHT22;6257;57.634;18.310;2023-03-14T03:01:18;6.40;99.90
12386;DHT22;6257;57.634;18.310;2023-03-14T03:03:47;6.40;99.90
12386;DHT22;6257;57.634;18.310;2023-03-14T03:06:14;6.40;99.90
12386;DHT22;6257;57.634;18.310;2023-03-14T03:08:41;6.40;99.90
12386;DHT22;6257;57.634;18.310;2023-03-14T03:11:08;6.50;99.90
12386;DHT22;6257;57.634;18.310;2023-03-14T03:13:35;6.40;99.90
12386;DHT22;6257;57.634;18.310;2023-03-14T03:16:03;6.50;99.90
12386;DHT22;6257;57.634;18.310;2023-03-14T03:18:30;6.40;99.90
12386;DHT22;6257;57.634;18.310;2023-03-14T03:21:01;6.40;99.90
12386;DHT22;6257;57.634;18.310;2023-03-14T03:23:28;6.50;99.90
12386;DHT22;6257;57.634;18.310;2023-03-14T03:25:56;6.50;99.90
12386;DHT22;6257;57.634;18.310;2023-03-14T03:28:23;6.40;99.90
12386;DHT22;6257;57.634;18.310;2023-03-14T03:30:50;6.40;99.90
12386;DHT22;6257;57.634;18.310;2023-03-14T03:33:17;6.40;99.90
12386;DHT22;6257;57.634;18.310;2023-03-14T03:35:46;6.30;99.90
12386;DHT22;6257;57.634;18.310;2023-03-14T03:38:16;6.30;99.90
12386;DHT22;6257;57.634;18.310;2023-03-14T03:40:43;6.40;99.90
12386;DHT22;6257;57.634;18.310;2023-03-14T03:43:10;6.40;99.90
12386;DHT22;6257;57.634;18.310;2023-03-14T03:45:37;6.40;99.90
12386;DHT22;6257;57.634;18.310;2023-03-14T03:48:05;6.40;99.90
12386;DHT22;6257;57.634;18.310;2023-03-14T03:50:32;6.40;99.90
12386;DHT22;6257;57.634;18.310;2023-03-14T03:53:00;6.40;99.90
12386;DHT22;6257;57.634;18.310;2023-03-14T03:55:28;6.40;99.90
12386;DHT22;6257;57.634;18.310;2023-03-14T03:57:55;6.40;99.90
12386;DHT22;6257;57.634;18.310;2023-03-14T04:00:22;6.40;99.90
12386;DHT22;6257;57.634;18.310;2023-03-14T04:02:50;6.40;99.90
12386;DHT22;6257;57.634;18.310;2023-03-14T04:05:17;6.40;99.90
12386;DHT22;6257;57.634;18.310;2023-03-14T04:07:44;6.40;99.90
12386;DHT22;6257;57.634;18.310;2023-03-14T04:10:11;6.40;99.90
12386;DHT22;6257;57.634;18.310;2023-03-14T04:12:39;6.40;99.90
12386;DHT22;6257;57.634;18.310;2023-03-14T04:15:07;6.30;99.90
12386;DHT22;6257;57.634;18.310;2023-03-14T04:17:34;6.30;99.90
12386;DHT22;6257;57.634;18.310;2023-03-14T04:20:02;6.30;99.90
12386;DHT22;6257;57.634;18.310;2023-03-14T04:22:30;6.20;99.90
12386;DHT22;6257;57.634;18.310;2023-03-14T04:24:57;6.20;99.90
12386;DHT22;6257;57.634;18.310;2023-03-14T04:27:24;6.20;99.90
12386;DHT22;6257;57.634;18.310;2023-03-14T04:29:53;6.10;99.90
12386;DHT22;6257;57.634;18.310;2023-03-14T04:32:20;6.20;99.90
12386;DHT22;6257;57.634;18.310;2023-03-14T04:34:47;6.30;99.90
12386;DHT22;6257;57.634;18.310;2023-03-14T04:37:14;6.40;99.90
12386;DHT22;6257;57.634;18.310;2023-03-14T04:39:41;6.40;99.90
12386;DHT22;6257;57.634;18.310;2023-03-14T04:42:08;6.40;99.90
12386;DHT22;6257;57.634;18.310;2023-03-14T04:44:35;6.40;99.90
12386;DHT22;6257;57.634;18.310;2023-03-14T04:47:04;6.40;99.90
12386;DHT22;6257;57.634;18.310;2023-03-14T04:49:31;6.40;99.90
12386;DHT22;6257;57.634;18.310;2023-03-14T04:51:58;6.40;99.90
12386;DHT22;6257;57.634;18.310;2023-03-14T04:54:25;6.40;99.90
12386;DHT22;6257;57.634;18.310;2023-03-14T04:56:52;6.40;99.90
12386;DHT22;6257;57.634;18.310;2023-03-14T04:59:19;6.50;99.90
12386;DHT22;6257;57.634;18.310;2023-03-14T05:01:46;6.50;99.90
12386;DHT22;6257;57.634;18.310;2023-03-14T05:04:16;6.50;99.90
12386;DHT22;6257;57.634;18.310;2023-03-14T05:06:43;6.40;99.90
12386;DHT22;6257;57.634;18.310;2023-03-14T05:09:10;6.40;99.90
12386;DHT22;6257;57.634;18.310;2023-03-14T05:11:37;6.30;99.90
12386;DHT22;6257;57.634;18.310;2023-03-14T05:14:04;6.30;99.90
12386;DHT22;6257;57.634;18.310;2023-03-14T05:16:32;6.30;99.90
12386;DHT22;6257;57.634;18.310;2023-03-14T05:18:59;6.30;99.90
12386;DHT22;6257;57.634;18.310;2023-03-14T05:21:28;6.40;99.90
12386;DHT22;6257;57.634;18.310;2023-03-14T05:23:55;6.50;99.90
12386;DHT22;6257;57.634;18.310;2023-03-14T05:26:22;6.50;99.90
12386;DHT22;6257;57.634;18.310;2023-03-14T05:28:49;6.50;99.90
12386;DHT22;6257;57.634;18.310;2023-03-14T05:31:17;6.50;99.90
12386;DHT22;6257;57.634;18.310;2023-03-14T05:33:44;6.50;99.90
12386;DHT22;6257;57.634;18.310;2023-03-14T05:36:11;6.50;99.90
12386;DHT22;6257;57.634;18.310;2023-03-14T05:38:40;6.50;99.90
12386;DHT22;6257;57.634;18.310;2023-03-14T05:41:07;6.50;99.90
12386;DHT22;6257;57.634;18.310;2023-03-14T05:43:34;6.50;99.90
12386;DHT22;6257;57.634;18.310;2023-03-14T05:46:02;6.50;99.90
12386;DHT22;6257;57.634;18.310;2023-03-14T05:48:29;6.50;99.90
12386;DHT22;6257;57.634;18.310;2023-03-14T05:50:56;6.60;99.90
12386;DHT22;6257;57.634;18.310;2023-03-14T05:53:25;6.50;99.90
12386;DHT22;6257;57.634;18.310;2023-03-14T05:55:55;6.60;99.90
12386;DHT22;6257;57.634;18.310;2023-03-14T05:58:22;6.60;99.90
12386;DHT22;6257;57.634;18.310;2023-03-14T06:00:50;6.60;99.90
12386;DHT22;6257;57.634;18.310;2023-03-14T06:03:17;6.60;99.90
12386;DHT22;6257;57.634;18.310;2023-03-14T06:05:44;6.60;99.90
12386;DHT22;6257;57.634;18.310;2023-03-14T06:08:12;6.70;99.90
12386;DHT22;6257;57.634;18.310;2023-03-14T06:10:39;6.80;99.90
12386;DHT22;6257;57.634;18.310;2023-03-14T06:13:08;6.80;99.90
12386;DHT22;6257;57.634;18.310;2023-03-14T06:15:35;6.80;99.90
12386;DHT22;6257;57.634;18.310;2023-03-14T06:18:02;6.80;99.90
12386;DHT22;6257;57.634;18.310;2023-03-14T06:20:29;6.90;99.90
12386;DHT22;6257;57.634;18.310;2023-03-14T06:22:56;7.00;99.90
12386;DHT22;6257;57.634;18.310;2023-03-14T06:25:23;7.10;99.90
12386;DHT22;6257;57.634;18.310;2023-03-14T06:27:51;7.20;99.90
12386;DHT22;6257;57.634;18.310;2023-03-14T06:30:19;7.20;99.90
12386;DHT22;6257;57.634;18.310;2023-03-14T06:32:46;7.20;99.90
12386;DHT22;6257;57.634;18.310;2023-03-14T06:35:14;7.30;99.90
12386;DHT22;6257;57.634;18.310;2023-03-14T06:37:41;7.30;99.90
12386;DHT22;6257;57.634;18.310;2023-03-14T06:40:10;7.40;99.90
12386;DHT22;6257;57.634;18.310;2023-03-14T06:42:38;7.40;99.90
12386;DHT22;6257;57.634;18.310;2023-03-14T06:45:06;7.30;99.90
12386;DHT22;6257;57.634;18.310;2023-03-14T06:47:35;7.30;99.90
12386;DHT22;6257;57.634;18.310;2023-03-14T06:50:05;7.20;99.90
12386;DHT22;6257;57.634;18.310;2023-03-14T06:52:33;7.20;99.90
12386;DHT22;6257;57.634;18.310;2023-03-14T06:55:00;7.30;99.90
12386;DHT22;6257;57.634;18.310;2023-03-14T06:57:27;7.40;99.90
12386;DHT22;6257;57.634;18.310;2023-03-14T06:59:54;7.60;99.90
12386;DHT22;6257;57.634;18.310;2023-03-14T07:02:22;7.80;99.90
12386;DHT22;6257;57.634;18.310;2023-03-14T07:04:50;8.00;99.90
12386;DHT22;6257;57.634;18.310;2023-03-14T07:07:18;8.20;99.90
12386;DHT22;6257;57.634;18.310;2023-03-14T07:09:44;8.30;99.90
12386;DHT22;6257;57.634;18.310;2023-03-14T07:12:11;8.40;99.90
12386;DHT22;6257;57.634;18.310;2023-03-14T07:14:39;8.50;99.90
12386;DHT22;6257;57.634;18.310;2023-03-14T07:17:06;8.50;99.90
12386;DHT22;6257;57.634;18.310;2023-03-14T07:19:33;8.60;99.90
12386;DHT22;6257;57.634;18.310;2023-03-14T07:22:01;8.60;99.90
12386;DHT22;6257;57.634;18.310;2023-03-14T07:24:28;8.70;99.90
12386;DHT22;6257;57.634;18.310;2023-03-14T07:26:55;8.70;99.90
12386;DHT22;6257;57.634;18.310;2023-03-14T07:29:22;8.70;99.90
12386;DHT22;6257;57.634;18.310;2023-03-14T07:31:49;8.70;99.90
12386;DHT22;6257;57.634;18.310;2023-03-14T07:34:16;8.80;99.90
12386;DHT22;6257;57.634;18.310;2023-03-14T07:36:45;8.90;99.90
12386;DHT22;6257;57.634;18.310;2023-03-14T07:39:13;9.00;99.90
12386;DHT22;6257;57.634;18.310;2023-03-14T07:41:40;9.10;99.90
12386;DHT22;6257;57.634;18.310;2023-03-14T07:44:07;9.20;99.90
12386;DHT22;6257;57.634;18.310;2023-03-14T07:46:34;9.30;99.90
12386;DHT22;6257;57.634;18.310;2023-03-14T07:49:02;9.40;99.90
12386;DHT22;6257;57.634;18.310;2023-03-14T07:51:29;9.50;99.90
12386;DHT22;6257;57.634;18.310;2023-03-14T07:53:56;9.70;99.90
12386;DHT22;6257;57.634;18.310;2023-03-14T07:56:24;9.70;99.90
12386;DHT22;6257;57.634;18.310;2023-03-14T07:58:51;9.60;99.90
12386;DHT22;6257;57.634;18.310;2023-03-14T08:01:18;9.50;99.90
12386;DHT22;6257;57.634;18.310;2023-03-14T08:03:45;9.30;99.90
12386;DHT22;6257;57.634;18.310;2023-03-14T08:06:13;9.30;99.90
12386;DHT22;6257;57.634;18.310;2023-03-14T08:08:40;9.30;99.90
12386;DHT22;6257;57.634;18.310;2023-03-14T08:11:07;9.40;99.90
12386;DHT22;6257;57.634;18.310;2023-03-14T08:13:37;9.40;99.90
12386;DHT22;6257;57.634;18.310;2023-03-14T08:16:05;9.50;99.90
12386;DHT22;6257;57.634;18.310;2023-03-14T08:18:32;9.60;99.90
12386;DHT22;6257;57.634;18.310;2023-03-14T08:21:00;9.60;99.90
12386;DHT22;6257;57.634;18.310;2023-03-14T08:23:27;9.70;99.90
12386;DHT22;6257;57.634;18.310;2023-03-14T08:25:54;9.60;99.90
12386;DHT22;6257;57.634;18.310;2023-03-14T08:28:21;9.60;99.90
12386;DHT22;6257;57.634;18.310;2023-03-14T08:30:49;9.60;99.90
12386;DHT22;6257;57.634;18.310;2023-03-14T08:33:17;9.70;99.90
12386;DHT22;6257;57.634;18.310;2023-03-14T08:35:44;10.10;99.90
12386;DHT22;6257;57.634;18.310;2023-03-14T08:38:11;10.30;99.90
12386;DHT22;6257;57.634;18.310;2023-03-14T08:40:38;10.30;99.90
12386;DHT22;6257;57.634;18.310;2023-03-14T08:43:05;10.10;99.90
12386;DHT22;6257;57.634;18.310;2023-03-14T08:45:32;9.70;99.90
12386;DHT22;6257;57.634;18.310;2023-03-14T08:48:00;9.30;99.90
12386;DHT22;6257;57.634;18.310;2023-03-14T08:50:27;9.10;99.90
12386;DHT22;6257;57.634;18.310;2023-03-14T08:52:54;9.00;99.90
12386;DHT22;6257;57.634;18.310;2023-03-14T08:55:23;9.00;99.90
12386;DHT22;6257;57.634;18.310;2023-03-14T08:57:52;9.00;99.90
12386;DHT22;6257;57.634;18.310;2023-03-14T09:00:20;9.10;99.90
12386;DHT22;6257;57.634;18.310;2023-03-14T09:02:48;9.30;99.90
12386;DHT22;6257;57.634;18.310;2023-03-14T09:05:16;9.50;99.90
12386;DHT22;6257;57.634;18.310;2023-03-14T09:07:43;9.80;99.90
12386;DHT22;6257;57.634;18.310;2023-03-14T09:10:11;9.90;99.90
12386;DHT22;6257;57.634;18.310;2023-03-14T09:12:38;10.00;99.90
12386;DHT22;6257;57.634;18.310;2023-03-14T09:15:06;9.90;99.90
12386;DHT22;6257;57.634;18.310;2023-03-14T09:17:33;9.80;99.90
12386;DHT22;6257;57.634;18.310;2023-03-14T09:20:01;9.70;99.90
12386;DHT22;6257;57.634;18.310;2023-03-14T09:22:32;9.50;99.90
12386;DHT22;6257;57.634;18.310;2023-03-14T09:25:01;9.40;99.90
12386;DHT22;6257;57.634;18.310;2023-03-14T09:27:28;9.30;99.90
12386;DHT22;6257;57.634;18.310;2023-03-14T09:29:55;9.20;99.90
12386;DHT22;6257;57.634;18.310;2023-03-14T09:32:23;9.20;99.90
12386;DHT22;6257;57.634;18.310;2023-03-14T09:34:50;9.30;99.90
12386;DHT22;6257;57.634;18.310;2023-03-14T09:37:17;9.30;99.90
12386;DHT22;6257;57.634;18.310;2023-03-14T09:39:47;9.40;99.90
12386;DHT22;6257;57.634;18.310;2023-03-14T09:42:16;9.50;99.90
12386;DHT22;6257;57.634;18.310;2023-03-14T09:44:52;9.60;99.90
12386;DHT22;6257;57.634;18.310;2023-03-14T09:47:20;9.60;99.90
12386;DHT22;6257;57.634;18.310;2023-03-14T09:49:48;9.60;99.90
12386;DHT22;6257;57.634;18.310;2023-03-14T09:52:22;9.40;99.90
12386;DHT22;6257;57.634;18.310;2023-03-14T09:54:53;9.20;99.90
12386;DHT22;6257;57.634;18.310;2023-03-14T09:57:24;9.10;99.90
12386;DHT22;6257;57.634;18.310;2023-03-14T09:59:54;9.00;99.90
12386;DHT22;6257;57.634;18.310;2023-03-14T10:02:24;9.00;99.90
12386;DHT22;6257;57.634;18.310;2023-03-14T10:04:53;8.90;99.90
12386;DHT22;6257;57.634;18.310;2023-03-14T10:07:25;9.00;99.90
12386;DHT22;6257;57.634;18.310;2023-03-14T10:09:56;9.00;99.90
12386;DHT22;6257;57.634;18.310;2023-03-14T10:12:30;8.90;99.90
12386;DHT22;6257;57.634;18.310;2023-03-14T10:15:03;8.80;99.90
12386;DHT22;6257;57.634;18.310;2023-03-14T10:17:39;8.80;99.90
12386;DHT22;6257;57.634;18.310;2023-03-14T10:20:14;8.90;99.90
12386;DHT22;6257;57.634;18.310;2023-03-14T10:22:53;8.90;99.90
12386;DHT22;6257;57.634;18.310;2023-03-14T10:25:27;8.80;99.90
12386;DHT22;6257;57.634;18.310;2023-03-14T10:27:55;8.80;99.90
12386;DHT22;6257;57.634;18.310;2023-03-14T10:30:39;8.90;99.90
12386;DHT22;6257;57.634;18.310;2023-03-14T10:33:11;9.00;99.90
12386;DHT22;6257;57.634;18.310;2023-03-14T10:35:38;9.10;99.90
12386;DHT22;6257;57.634;18.310;2023-03-14T10:38:10;9.20;99.90
12386;DHT22;6257;57.634;18.310;2023-03-14T10:40:42;9.30;99.90
12386;DHT22;6257;57.634;18.310;2023-03-14T10:43:17;9.30;99.90
12386;DHT22;6257;57.634;18.310;2023-03-14T10:45:51;9.20;99.90
12386;DHT22;6257;57.634;18.310;2023-03-14T10:48:28;9.20;99.90
12386;DHT22;6257;57.634;18.310;2023-03-14T10:50:57;9.10;99.90
12386;DHT22;6257;57.634;18.310;2023-03-14T10:53:33;9.00;99.90
12386;DHT22;6257;57.634;18.310;2023-03-14T10:56:04;8.80;99.90
12386;DHT22;6257;57.634;18.310;2023-03-14T10:58:37;8.80;99.90
12386;DHT22;6257;57.634;18.310;2023-03-14T11:01:23;8.70;99.90
12386;DHT22;6257;57.634;18.310;2023-03-14T11:03:56;8.70;99.90
12386;DHT22;6257;57.634;18.310;2023-03-14T11:06:31;8.70;99.90
12386;DHT22;6257;57.634;18.310;2023-03-14T11:09:04;8.70;99.90
12386;DHT22;6257;57.634;18.310;2023-03-14T11:11:34;8.70;99.90
12386;DHT22;6257;57.634;18.310;2023-03-14T11:14:12;8.80;99.90
12386;DHT22;6257;57.634;18.310;2023-03-14T11:16:46;8.80;99.90
12386;DHT22;6257;57.634;18.310;2023-03-14T11:19:43;8.90;99.90
12386;DHT22;6257;57.634;18.310;2023-03-14T11:22:21;9.00;99.90
12386;DHT22;6257;57.634;18.310;2023-03-14T11:25:15;9.00;99.90
12386;DHT22;6257;57.634;18.310;2023-03-14T11:27:51;8.90;99.90
12386;DHT22;6257;57.634;18.310;2023-03-14T11:30:27;8.90;99.90
12386;DHT22;6257;57.634;18.310;2023-03-14T11:33:01;8.80;99.90
12386;DHT22;6257;57.634;18.310;2023-03-14T11:35:33;8.80;99.90
12386;DHT22;6257;57.634;18.310;2023-03-14T11:38:10;8.80;99.90
12386;DHT22;6257;57.634;18.310;2023-03-14T11:40:38;8.70;99.90
12386;DHT22;6257;57.634;18.310;2023-03-14T11:43:12;8.70;99.90
12386;DHT22;6257;57.634;18.310;2023-03-14T11:45:42;8.60;99.90
12386;DHT22;6257;57.634;18.310;2023-03-14T11:48:18;8.40;99.90
12386;DHT22;6257;57.634;18.310;2023-03-14T11:50:49;8.30;99.90
12386;DHT22;6257;57.634;18.310;2023-03-14T11:53:19;8.10;99.90
12386;DHT22;6257;57.634;18.310;2023-03-14T11:55:48;8.10;99.90
12386;DHT22;6257;57.634;18.310;2023-03-14T11:58:22;8.00;99.90
12386;DHT22;6257;57.634;18.310;2023-03-14T12:00:51;7.90;99.90
12386;DHT22;6257;57.634;18.310;2023-03-14T12:03:26;7.80;99.90
12386;DHT22;6257;57.634;18.310;2023-03-14T12:06:02;7.60;99.90
12386;DHT22;6257;57.634;18.310;2023-03-14T12:08:42;7.50;99.90
12386;DHT22;6257;57.634;18.310;2023-03-14T12:11:13;7.40;99.90
12386;DHT22;6257;57.634;18.310;2023-03-14T12:13:47;7.40;99.90
12386;DHT22;6257;57.634;18.310;2023-03-14T12:16:34;7.40;99.90
12386;DHT22;6257;57.634;18.310;2023-03-14T12:24:47;7.30;99.90
12386;DHT22;6257;57.634;18.310;2023-03-14T12:27:44;7.30;99.90
12386;DHT22;6257;57.634;18.310;2023-03-14T12:30:28;7.30;99.90
12386;DHT22;6257;57.634;18.310;2023-03-14T12:36:02;7.30;99.90
12386;DHT22;6257;57.634;18.310;2023-03-14T12:38:42;7.20;99.90
12386;DHT22;6257;57.634;18.310;2023-03-14T12:41:15;7.10;99.90
12386;DHT22;6257;57.634;18.310;2023-03-14T12:43:44;7.10;99.90
12386;DHT22;6257;57.634;18.310;2023-03-14T12:46:21;7.10;99.90
12386;DHT22;6257;57.634;18.310;2023-03-14T12:48:49;7.00;99.90
12386;DHT22;6257;57.634;18.310;2023-03-14T12:51:19;7.00;99.90
12386;DHT22;6257;57.634;18.310;2023-03-14T12:54:06;7.20;99.90
12386;DHT22;6257;57.634;18.310;2023-03-14T12:56:57;6.90;99.90
12386;DHT22;6257;57.634;18.310;2023-03-14T12:59:33;6.90;99.90
12386;DHT22;6257;57.634;18.310;2023-03-14T13:04:47;6.90;99.90
12386;DHT22;6257;57.634;18.310;2023-03-14T13:07:36;7.00;99.90
12386;DHT22;6257;57.634;18.310;2023-03-14T13:10:23;7.10;99.90
12386;DHT22;6257;57.634;18.310;2023-03-14T13:12:54;7.20;99.90
12386;DHT22;6257;57.634;18.310;2023-03-14T13:15:25;7.20;99.90
12386;DHT22;6257;57.634;18.310;2023-03-14T13:18:01;7.30;99.90
12386;DHT22;6257;57.634;18.310;2023-03-14T13:20:31;7.30;99.90
12386;DHT22;6257;57.634;18.310;2023-03-14T13:22:59;7.30;99.90
12386;DHT22;6257;57.634;18.310;2023-03-14T13:25:30;7.40;99.90
12386;DHT22;6257;57.634;18.310;2023-03-14T13:27:58;7.40;99.90
12386;DHT22;6257;57.634;18.310;2023-03-14T13:30:27;7.30;99.90
12386;DHT22;6257;57.634;18.310;2023-03-14T13:32:56;7.40;99.90
12386;DHT22;6257;57.634;18.310;2023-03-14T13:35:26;7.40;99.90
12386;DHT22;6257;57.634;18.310;2023-03-14T13:37:57;7.30;99.90
12386;DHT22;6257;57.634;18.310;2023-03-14T13:40:27;7.30;99.90
12386;DHT22;6257;57.634;18.310;2023-03-14T13:43:11;7.30;99.90
12386;DHT22;6257;57.634;18.310;2023-03-14T13:45:51;7.30;99.90
12386;DHT22;6257;57.634;18.310;2023-03-14T13:48:21;7.30;99.90
12386;DHT22;6257;57.634;18.310;2023-03-14T13:50:51;7.20;99.90
12386;DHT22;6257;57.634;18.310;2023-03-14T13:53:18;7.20;99.90
12386;DHT22;6257;57.634;18.310;2023-03-14T13:55:46;7.20;99.90
12386;DHT22;6257;57.634;18.310;2023-03-14T13:58:22;7.30;99.90
12386;DHT22;6257;57.634;18.310;2023-03-14T14:01:03;7.30;99.90
12386;DHT22;6257;57.634;18.310;2023-03-14T14:03:34;7.20;99.90
12386;DHT22;6257;57.634;18.310;2023-03-14T14:06:04;7.20;99.90
12386;DHT22;6257;57.634;18.310;2023-03-14T14:08:33;7.10;99.90
12386;DHT22;6257;57.634;18.310;2023-03-14T14:11:02;7.10;99.90
12386;DHT22;6257;57.634;18.310;2023-03-14T14:13:32;7.10;99.90
12386;DHT22;6257;57.634;18.310;2023-03-14T14:16:02;7.10;99.90
12386;DHT22;6257;57.634;18.310;2023-03-14T14:18:32;7.10;99.90
12386;DHT22;6257;57.634;18.310;2023-03-14T14:21:00;7.10;99.90
12386;DHT22;6257;57.634;18.310;2023-03-14T14:23:28;7.10;99.90
12386;DHT22;6257;57.634;18.310;2023-03-14T14:25:58;7.20;99.90
12386;DHT22;6257;57.634;18.310;2023-03-14T14:28:28;7.20;99.90
12386;DHT22;6257;57.634;18.310;2023-03-14T14:31:05;7.20;99.90
12386;DHT22;6257;57.634;18.310;2023-03-14T14:33:42;7.20;99.90
12386;DHT22;6257;57.634;18.310;2023-03-14T14:36:19;7.20;99.90
12386;DHT22;6257;57.634;18.310;2023-03-14T14:38:52;7.10;99.90
12386;DHT22;6257;57.634;18.310;2023-03-14T14:41:20;7.00;99.90
12386;DHT22;6257;57.634;18.310;2023-03-14T14:43:53;7.00;99.90
12386;DHT22;6257;57.634;18.310;2023-03-14T14:46:21;7.10;99.90
12386;DHT22;6257;57.634;18.310;2023-03-14T14:48:49;7.20;99.90
12386;DHT22;6257;57.634;18.310;2023-03-14T14:51:30;7.10;99.90
12386;DHT22;6257;57.634;18.310;2023-03-14T14:54:05;7.00;99.90
12386;DHT22;6257;57.634;18.310;2023-03-14T14:56:37;7.00;99.90
12386;DHT22;6257;57.634;18.310;2023-03-14T14:59:07;6.90;99.90
12386;DHT22;6257;57.634;18.310;2023-03-14T15:01:45;6.90;99.90
12386;DHT22;6257;57.634;18.310;2023-03-14T15:04:17;6.80;99.90
12386;DHT22;6257;57.634;18.310;2023-03-14T15:06:47;6.80;99.90
12386;DHT22;6257;57.634;18.310;2023-03-14T15:09:15;6.70;99.90
12386;DHT22;6257;57.634;18.310;2023-03-14T15:11:43;6.70;99.90
12386;DHT22;6257;57.634;18.310;2023-03-14T15:14:10;6.70;99.90
12386;DHT22;6257;57.634;18.310;2023-03-14T15:16:38;6.60;99.90
12386;DHT22;6257;57.634;18.310;2023-03-14T15:19:12;6.60;99.90
12386;DHT22;6257;57.634;18.310;2023-03-14T15:21:41;6.60;99.90
12386;DHT22;6257;57.634;18.310;2023-03-14T15:24:09;6.60;99.90
12386;DHT22;6257;57.634;18.310;2023-03-14T15:26:37;6.50;99.90
12386;DHT22;6257;57.634;18.310;2023-03-14T15:29:04;6.50;99.90
12386;DHT22;6257;57.634;18.310;2023-03-14T15:31:34;6.50;99.90
12386;DHT22;6257;57.634;18.310;2023-03-14T15:34:02;6.50;99.90
12386;DHT22;6257;57.634;18.310;2023-03-14T15:36:31;6.40;99.90
12386;DHT22;6257;57.634;18.310;2023-03-14T15:39:00;6.40;99.90
12386;DHT22;6257;57.634;18.310;2023-03-14T15:41:27;6.30;99.90
12386;DHT22;6257;57.634;18.310;2023-03-14T15:43:55;6.30;99.90
12386;DHT22;6257;57.634;18.310;2023-03-14T15:46:22;6.20;99.90
12386;DHT22;6257;57.634;18.310;2023-03-14T15:48:51;6.00;99.90
12386;DHT22;6257;57.634;18.310;2023-03-14T15:51:18;5.90;99.90
12386;DHT22;6257;57.634;18.310;2023-03-14T15:53:46;5.90;99.90
12386;DHT22;6257;57.634;18.310;2023-03-14T15:56:17;5.80;99.90
12386;DHT22;6257;57.634;18.310;2023-03-14T15:58:44;5.80;99.90
12386;DHT22;6257;57.634;18.310;2023-03-14T16:01:13;5.80;99.90
12386;DHT22;6257;57.634;18.310;2023-03-14T16:03:41;5.90;99.90
12386;DHT22;6257;57.634;18.310;2023-03-14T16:06:09;5.90;99.90
12386;DHT22;6257;57.634;18.310;2023-03-14T16:08:37;5.90;99.90
12386;DHT22;6257;57.634;18.310;2023-03-14T16:11:04;5.90;99.90